Strona główna
METAR-TAF:

METAR-TAF

Lotnisko :

Hrabstwo Ocean, New Jersey, Stany Zjednoczone

Szerokość geograficzna: 39-55-39N, Długość geograficzna: 074-17-33W, wysokość: 25 m

Aktualna obserwacja pogody

Raport powstał 8 minut temu, godzina 22:56 UTC
Wiatr 7 kt od zachodnio-północny zachód
Temperatura 27°C
Wilgotność 32%
Ciśnienie 1012 hPa
Widzialność: 16.1 km
Mało chmury na wysokości 7500 ft

METAR: KMJX 302256Z AUTO 30007KT 10SM FEW075 27/09 A2989 RMK AO2 SLP123 T02670094

czas: 19:04 (23:04 UTC)


TAF: brakujący

Obserwacja i prognoza pogody dla ponad 4000 lotnisk (raport METAR i TAF).

Dostępne stacje oznaczono żółtymi i czerwonymi punktami na mapie.

Najedź kursorem aby zobaczyć nazwę stacji.

Kliknij aby zobaczyć obserwacje i prognozy pogody.

Aby zmienić mapę: kliknij na zielony przycisk z czarnym krzyżykiem, aby powiększyć; na zielony przycisk z myślnikiem, aby pomniejszyć; na zielone strzałki, aby przejść do map sąsiednich.


METAR-TAF: